sensor_id;sensor_type;location;lat;lon;timestamp;P1;durP1;ratioP1;P2;durP2;ratioP2
41627;SDS011;27321;50.816;6.054;2024-03-02T00:01:12;2.20;;;0.57;;
41627;SDS011;27321;50.816;6.054;2024-03-02T00:04:16;0.30;;;0.30;;
41627;SDS011;27321;50.816;6.054;2024-03-02T00:07:17;0.97;;;0.60;;
41627;SDS011;27321;50.816;6.054;2024-03-02T00:10:26;1.05;;;0.40;;
41627;SDS011;27321;50.816;6.054;2024-03-02T00:13:38;0.97;;;0.70;;
41627;SDS011;27321;50.816;6.054;2024-03-02T00:16:40;0.40;;;0.30;;
41627;SDS011;27321;50.816;6.054;2024-03-02T00:19:41;0.70;;;0.50;;
41627;SDS011;27321;50.816;6.054;2024-03-02T00:22:42;2.30;;;0.73;;
41627;SDS011;27321;50.816;6.054;2024-03-02T00:25:44;0.70;;;0.60;;
41627;SDS011;27321;50.816;6.054;2024-03-02T00:28:50;0.80;;;0.47;;
41627;SDS011;27321;50.816;6.054;2024-03-02T00:31:57;0.87;;;0.60;;
41627;SDS011;27321;50.816;6.054;2024-03-02T00:34:58;2.90;;;0.68;;
41627;SDS011;27321;50.816;6.054;2024-03-02T00:38:03;0.67;;;0.40;;
41627;SDS011;27321;50.816;6.054;2024-03-02T00:41:07;0.87;;;0.60;;
41627;SDS011;27321;50.816;6.054;2024-03-02T00:44:27;1.10;;;0.50;;
41627;SDS011;27321;50.816;6.054;2024-03-02T00:47:31;0.77;;;0.37;;
41627;SDS011;27321;50.816;6.054;2024-03-02T00:50:32;1.25;;;0.60;;
41627;SDS011;27321;50.816;6.054;2024-03-02T00:53:33;2.07;;;0.43;;
41627;SDS011;27321;50.816;6.054;2024-03-02T00:56:34;1.17;;;0.47;;
41627;SDS011;27321;50.816;6.054;2024-03-02T00:59:35;0.57;;;0.40;;
41627;SDS011;27321;50.816;6.054;2024-03-02T01:02:37;1.17;;;0.40;;
41627;SDS011;27321;50.816;6.054;2024-03-02T01:05:41;0.67;;;0.50;;
41627;SDS011;27321;50.816;6.054;2024-03-02T01:08:43;0.77;;;0.40;;
41627;SDS011;27321;50.816;6.054;2024-03-02T01:11:44;0.47;;;0.32;;
41627;SDS011;27321;50.816;6.054;2024-03-02T01:14:45;1.30;;;0.60;;
41627;SDS011;27321;50.816;6.054;2024-03-02T01:17:46;1.20;;;0.57;;
41627;SDS011;27321;50.816;6.054;2024-03-02T01:20:47;0.90;;;0.50;;
41627;SDS011;27321;50.816;6.054;2024-03-02T01:23:51;0.87;;;0.60;;
41627;SDS011;27321;50.816;6.054;2024-03-02T01:26:52;1.13;;;0.63;;
41627;SDS011;27321;50.816;6.054;2024-03-02T01:29:53;0.75;;;0.60;;
41627;SDS011;27321;50.816;6.054;2024-03-02T01:32:55;2.90;;;0.85;;
41627;SDS011;27321;50.816;6.054;2024-03-02T01:35:56;1.03;;;0.70;;
41627;SDS011;27321;50.816;6.054;2024-03-02T01:38:57;0.90;;;0.70;;
41627;SDS011;27321;50.816;6.054;2024-03-02T01:41:57;2.00;;;1.20;;
41627;SDS011;27321;50.816;6.054;2024-03-02T01:44:58;2.00;;;0.80;;
41627;SDS011;27321;50.816;6.054;2024-03-02T01:48:00;0.50;;;0.50;;
41627;SDS011;27321;50.816;6.054;2024-03-02T01:51:02;1.57;;;0.47;;
41627;SDS011;27321;50.816;6.054;2024-03-02T01:54:06;1.40;;;0.33;;
41627;SDS011;27321;50.816;6.054;2024-03-02T01:57:07;0.80;;;0.20;;
41627;SDS011;27321;50.816;6.054;2024-03-02T02:00:09;0.52;;;0.30;;
41627;SDS011;27321;50.816;6.054;2024-03-02T02:03:14;0.20;;;0.10;;
41627;SDS011;27321;50.816;6.054;2024-03-02T02:06:16;0.73;;;0.17;;
41627;SDS011;27321;50.816;6.054;2024-03-02T02:12:18;0.20;;;0.13;;
41627;SDS011;27321;50.816;6.054;2024-03-02T02:15:26;0.63;;;0.20;;
41627;SDS011;27321;50.816;6.054;2024-03-02T02:18:29;0.20;;;0.10;;
41627;SDS011;27321;50.816;6.054;2024-03-02T02:21:30;0.40;;;0.27;;
41627;SDS011;27321;50.816;6.054;2024-03-02T02:24:31;0.43;;;0.20;;
41627;SDS011;27321;50.816;6.054;2024-03-02T02:27:32;0.20;;;0.10;;
41627;SDS011;27321;50.816;6.054;2024-03-02T02:30:33;0.70;;;0.20;;
41627;SDS011;27321;50.816;6.054;2024-03-02T02:33:33;0.30;;;0.10;;
41627;SDS011;27321;50.816;6.054;2024-03-02T02:36:39;0.63;;;0.10;;
41627;SDS011;27321;50.816;6.054;2024-03-02T02:39:40;0.10;;;0.10;;
41627;SDS011;27321;50.816;6.054;2024-03-02T02:42:41;0.17;;;0.00;;
41627;SDS011;27321;50.816;6.054;2024-03-02T02:45:43;0.05;;;0.05;;
41627;SDS011;27321;50.816;6.054;2024-03-02T02:48:44;0.10;;;0.10;;
41627;SDS011;27321;50.816;6.054;2024-03-02T02:51:45;0.20;;;0.10;;
41627;SDS011;27321;50.816;6.054;2024-03-02T02:54:46;0.00;;;0.00;;
41627;SDS011;27321;50.816;6.054;2024-03-02T02:57:47;1.90;;;0.20;;
41627;SDS011;27321;50.816;6.054;2024-03-02T03:00:47;0.20;;;0.00;;
41627;SDS011;27321;50.816;6.054;2024-03-02T03:03:49;0.30;;;0.10;;
41627;SDS011;27321;50.816;6.054;2024-03-02T03:06:49;0.50;;;0.10;;
41627;SDS011;27321;50.816;6.054;2024-03-02T03:09:50;0.30;;;0.10;;
41627;SDS011;27321;50.816;6.054;2024-03-02T03:12:51;0.30;;;0.10;;
41627;SDS011;27321;50.816;6.054;2024-03-02T03:15:52;1.10;;;0.10;;
41627;SDS011;27321;50.816;6.054;2024-03-02T03:18:53;0.20;;;0.20;;
41627;SDS011;27321;50.816;6.054;2024-03-02T03:21:54;0.20;;;0.20;;
41627;SDS011;27321;50.816;6.054;2024-03-02T03:24:55;0.37;;;0.10;;
41627;SDS011;27321;50.816;6.054;2024-03-02T03:27:56;0.27;;;0.20;;
41627;SDS011;27321;50.816;6.054;2024-03-02T03:30:57;0.85;;;0.20;;
41627;SDS011;27321;50.816;6.054;2024-03-02T03:33:58;0.30;;;0.27;;
41627;SDS011;27321;50.816;6.054;2024-03-02T03:36:59;0.60;;;0.40;;
41627;SDS011;27321;50.816;6.054;2024-03-02T03:40:02;0.67;;;0.30;;
41627;SDS011;27321;50.816;6.054;2024-03-02T03:43:07;0.40;;;0.30;;
41627;SDS011;27321;50.816;6.054;2024-03-02T03:46:08;0.45;;;0.30;;
41627;SDS011;27321;50.816;6.054;2024-03-02T03:49:09;0.70;;;0.20;;
41627;SDS011;27321;50.816;6.054;2024-03-02T03:52:11;0.35;;;0.22;;
41627;SDS011;27321;50.816;6.054;2024-03-02T03:55:12;0.10;;;0.10;;
41627;SDS011;27321;50.816;6.054;2024-03-02T03:58:13;0.52;;;0.30;;
41627;SDS011;27321;50.816;6.054;2024-03-02T04:01:14;0.70;;;0.38;;
41627;SDS011;27321;50.816;6.054;2024-03-02T04:04:15;0.50;;;0.30;;
41627;SDS011;27321;50.816;6.054;2024-03-02T04:07:17;0.20;;;0.20;;
41627;SDS011;27321;50.816;6.054;2024-03-02T04:10:18;0.20;;;0.20;;
41627;SDS011;27321;50.816;6.054;2024-03-02T04:13:21;0.33;;;0.30;;
41627;SDS011;27321;50.816;6.054;2024-03-02T04:16:22;1.25;;;0.30;;
41627;SDS011;27321;50.816;6.054;2024-03-02T04:19:23;0.15;;;0.15;;
41627;SDS011;27321;50.816;6.054;2024-03-02T04:22:24;0.30;;;0.30;;
41627;SDS011;27321;50.816;6.054;2024-03-02T04:25:25;0.45;;;0.30;;
41627;SDS011;27321;50.816;6.054;2024-03-02T04:28:26;0.30;;;0.20;;
41627;SDS011;27321;50.816;6.054;2024-03-02T04:31:27;1.50;;;0.20;;
41627;SDS011;27321;50.816;6.054;2024-03-02T04:34:27;0.30;;;0.20;;
41627;SDS011;27321;50.816;6.054;2024-03-02T04:37:28;1.17;;;0.20;;
41627;SDS011;27321;50.816;6.054;2024-03-02T04:40:29;0.10;;;0.10;;
41627;SDS011;27321;50.816;6.054;2024-03-02T04:43:30;0.27;;;0.20;;
41627;SDS011;27321;50.816;6.054;2024-03-02T04:46:32;0.28;;;0.10;;
41627;SDS011;27321;50.816;6.054;2024-03-02T04:49:32;0.10;;;0.10;;
41627;SDS011;27321;50.816;6.054;2024-03-02T04:52:33;0.40;;;0.00;;
41627;SDS011;27321;50.816;6.054;2024-03-02T04:55:34;0.37;;;0.10;;
41627;SDS011;27321;50.816;6.054;2024-03-02T04:58:55;0.00;;;0.00;;
41627;SDS011;27321;50.816;6.054;2024-03-02T05:01:56;0.40;;;0.20;;
41627;SDS011;27321;50.816;6.054;2024-03-02T05:04:58;0.22;;;0.10;;
41627;SDS011;27321;50.816;6.054;2024-03-02T05:07:59;0.20;;;0.10;;
41627;SDS011;27321;50.816;6.054;2024-03-02T05:11:02;0.43;;;0.10;;
41627;SDS011;27321;50.816;6.054;2024-03-02T05:14:22;0.13;;;0.00;;
41627;SDS011;27321;50.816;6.054;2024-03-02T05:17:22;0.00;;;0.00;;
41627;SDS011;27321;50.816;6.054;2024-03-02T05:20:23;0.00;;;0.00;;
41627;SDS011;27321;50.816;6.054;2024-03-02T05:23:24;1.37;;;0.17;;
41627;SDS011;27321;50.816;6.054;2024-03-02T05:26:25;0.33;;;0.17;;
41627;SDS011;27321;50.816;6.054;2024-03-02T05:29:27;0.10;;;0.10;;
41627;SDS011;27321;50.816;6.054;2024-03-02T05:32:28;0.37;;;0.20;;
41627;SDS011;27321;50.816;6.054;2024-03-02T05:35:29;0.10;;;0.10;;
41627;SDS011;27321;50.816;6.054;2024-03-02T05:38:30;0.20;;;0.10;;
41627;SDS011;27321;50.816;6.054;2024-03-02T05:41:31;0.32;;;0.15;;
41627;SDS011;27321;50.816;6.054;2024-03-02T05:44:32;1.02;;;0.13;;
41627;SDS011;27321;50.816;6.054;2024-03-02T05:47:33;0.10;;;0.10;;
41627;SDS011;27321;50.816;6.054;2024-03-02T05:50:34;3.30;;;0.20;;
41627;SDS011;27321;50.816;6.054;2024-03-02T05:53:35;0.10;;;0.10;;
41627;SDS011;27321;50.816;6.054;2024-03-02T05:56:38;0.20;;;0.10;;
41627;SDS011;27321;50.816;6.054;2024-03-02T05:59:39;0.10;;;0.10;;
41627;SDS011;27321;50.816;6.054;2024-03-02T06:02:40;0.20;;;0.17;;
41627;SDS011;27321;50.816;6.054;2024-03-02T06:05:41;0.10;;;0.00;;
41627;SDS011;27321;50.816;6.054;2024-03-02T06:08:42;0.10;;;0.10;;
41627;SDS011;27321;50.816;6.054;2024-03-02T06:11:42;0.30;;;0.03;;
41627;SDS011;27321;50.816;6.054;2024-03-02T06:14:43;0.10;;;0.10;;
41627;SDS011;27321;50.816;6.054;2024-03-02T06:17:44;0.40;;;0.10;;
41627;SDS011;27321;50.816;6.054;2024-03-02T06:20:45;0.20;;;0.10;;
41627;SDS011;27321;50.816;6.054;2024-03-02T06:23:46;0.53;;;0.10;;
41627;SDS011;27321;50.816;6.054;2024-03-02T06:26:47;0.05;;;0.05;;
41627;SDS011;27321;50.816;6.054;2024-03-02T06:29:48;0.87;;;0.10;;
41627;SDS011;27321;50.816;6.054;2024-03-02T06:32:49;0.27;;;0.00;;
41627;SDS011;27321;50.816;6.054;2024-03-02T06:35:50;0.00;;;0.00;;
41627;SDS011;27321;50.816;6.054;2024-03-02T06:38:51;0.93;;;0.10;;
41627;SDS011;27321;50.816;6.054;2024-03-02T06:41:52;0.00;;;0.00;;
41627;SDS011;27321;50.816;6.054;2024-03-02T06:44:53;0.10;;;0.00;;
41627;SDS011;27321;50.816;6.054;2024-03-02T06:47:54;0.10;;;0.10;;
41627;SDS011;27321;50.816;6.054;2024-03-02T06:50:55;0.10;;;0.10;;
41627;SDS011;27321;50.816;6.054;2024-03-02T06:53:57;0.17;;;0.10;;
41627;SDS011;27321;50.816;6.054;2024-03-02T06:56:58;1.03;;;0.10;;
41627;SDS011;27321;50.816;6.054;2024-03-02T06:59:59;0.10;;;0.10;;
41627;SDS011;27321;50.816;6.054;2024-03-02T07:03:02;0.03;;;0.00;;
41627;SDS011;27321;50.816;6.054;2024-03-02T07:06:03;0.47;;;0.10;;
41627;SDS011;27321;50.816;6.054;2024-03-02T07:09:04;0.20;;;0.10;;
41627;SDS011;27321;50.816;6.054;2024-03-02T07:12:05;0.30;;;0.10;;
41627;SDS011;27321;50.816;6.054;2024-03-02T07:15:07;0.20;;;0.10;;
41627;SDS011;27321;50.816;6.054;2024-03-02T07:18:18;0.10;;;0.10;;
41627;SDS011;27321;50.816;6.054;2024-03-02T07:21:19;0.10;;;0.10;;
41627;SDS011;27321;50.816;6.054;2024-03-02T07:24:22;0.43;;;0.10;;
41627;SDS011;27321;50.816;6.054;2024-03-02T07:27:23;0.00;;;0.00;;
41627;SDS011;27321;50.816;6.054;2024-03-02T07:30:24;0.10;;;0.10;;
41627;SDS011;27321;50.816;6.054;2024-03-02T07:33:25;0.27;;;0.27;;
41627;SDS011;27321;50.816;6.054;2024-03-02T07:36:26;0.75;;;0.20;;
41627;SDS011;27321;50.816;6.054;2024-03-02T07:39:27;0.33;;;0.20;;
41627;SDS011;27321;50.816;6.054;2024-03-02T07:42:29;1.50;;;0.30;;
41627;SDS011;27321;50.816;6.054;2024-03-02T07:45:30;1.70;;;0.30;;
41627;SDS011;27321;50.816;6.054;2024-03-02T07:48:31;0.50;;;0.23;;
41627;SDS011;27321;50.816;6.054;2024-03-02T07:51:32;0.30;;;0.10;;
41627;SDS011;27321;50.816;6.054;2024-03-02T07:54:33;1.13;;;0.30;;
41627;SDS011;27321;50.816;6.054;2024-03-02T07:57:34;0.47;;;0.10;;
41627;SDS011;27321;50.816;6.054;2024-03-02T08:00:35;0.50;;;0.17;;
41627;SDS011;27321;50.816;6.054;2024-03-02T08:03:37;0.73;;;0.20;;
41627;SDS011;27321;50.816;6.054;2024-03-02T08:06:38;0.88;;;0.30;;
41627;SDS011;27321;50.816;6.054;2024-03-02T08:09:38;0.53;;;0.30;;
41627;SDS011;27321;50.816;6.054;2024-03-02T08:12:39;0.30;;;0.20;;
41627;SDS011;27321;50.816;6.054;2024-03-02T08:15:40;0.77;;;0.43;;
41627;SDS011;27321;50.816;6.054;2024-03-02T08:18:41;0.77;;;0.30;;
41627;SDS011;27321;50.816;6.054;2024-03-02T08:21:43;0.82;;;0.40;;
41627;SDS011;27321;50.816;6.054;2024-03-02T08:24:44;0.73;;;0.45;;
41627;SDS011;27321;50.816;6.054;2024-03-02T08:27:46;0.80;;;0.30;;
41627;SDS011;27321;50.816;6.054;2024-03-02T08:30:47;0.35;;;0.17;;
41627;SDS011;27321;50.816;6.054;2024-03-02T08:33:47;1.33;;;0.50;;
41627;SDS011;27321;50.816;6.054;2024-03-02T08:36:48;1.30;;;0.67;;
41627;SDS011;27321;50.816;6.054;2024-03-02T08:39:49;1.08;;;0.40;;
41627;SDS011;27321;50.816;6.054;2024-03-02T08:42:51;2.30;;;0.50;;
41627;SDS011;27321;50.816;6.054;2024-03-02T08:45:53;0.40;;;0.40;;
41627;SDS011;27321;50.816;6.054;2024-03-02T08:48:54;0.50;;;0.50;;
41627;SDS011;27321;50.816;6.054;2024-03-02T08:51:54;0.43;;;0.30;;
41627;SDS011;27321;50.816;6.054;2024-03-02T08:54:55;1.00;;;0.50;;
41627;SDS011;27321;50.816;6.054;2024-03-02T08:57:56;0.63;;;0.53;;
41627;SDS011;27321;50.816;6.054;2024-03-02T09:00:58;1.85;;;0.57;;
41627;SDS011;27321;50.816;6.054;2024-03-02T09:03:59;0.40;;;0.40;;
41627;SDS011;27321;50.816;6.054;2024-03-02T09:07:02;1.87;;;0.50;;
41627;SDS011;27321;50.816;6.054;2024-03-02T09:10:04;0.35;;;0.32;;
41627;SDS011;27321;50.816;6.054;2024-03-02T09:13:06;0.70;;;0.50;;
41627;SDS011;27321;50.816;6.054;2024-03-02T09:16:07;0.43;;;0.40;;
41627;SDS011;27321;50.816;6.054;2024-03-02T09:19:11;2.57;;;0.60;;
41627;SDS011;27321;50.816;6.054;2024-03-02T09:22:12;0.40;;;0.40;;
41627;SDS011;27321;50.816;6.054;2024-03-02T09:25:13;0.75;;;0.30;;
41627;SDS011;27321;50.816;6.054;2024-03-02T09:28:18;0.65;;;0.30;;
41627;SDS011;27321;50.816;6.054;2024-03-02T09:31:18;0.50;;;0.30;;
41627;SDS011;27321;50.816;6.054;2024-03-02T09:34:19;1.40;;;0.40;;
41627;SDS011;27321;50.816;6.054;2024-03-02T09:37:20;1.42;;;0.35;;
41627;SDS011;27321;50.816;6.054;2024-03-02T09:40:22;1.70;;;0.20;;
41627;SDS011;27321;50.816;6.054;2024-03-02T09:43:23;1.38;;;0.40;;
41627;SDS011;27321;50.816;6.054;2024-03-02T09:46:24;0.60;;;0.40;;
41627;SDS011;27321;50.816;6.054;2024-03-02T09:49:25;0.95;;;0.30;;
41627;SDS011;27321;50.816;6.054;2024-03-02T09:52:26;0.52;;;0.30;;
41627;SDS011;27321;50.816;6.054;2024-03-02T09:55:27;1.10;;;0.40;;
41627;SDS011;27321;50.816;6.054;2024-03-02T09:58:29;0.82;;;0.57;;
41627;SDS011;27321;50.816;6.054;2024-03-02T10:01:31;0.52;;;0.30;;
41627;SDS011;27321;50.816;6.054;2024-03-02T10:04:32;0.30;;;0.30;;
41627;SDS011;27321;50.816;6.054;2024-03-02T10:07:36;0.10;;;0.10;;
41627;SDS011;27321;50.816;6.054;2024-03-02T10:10:38;0.90;;;0.28;;
41627;SDS011;27321;50.816;6.054;2024-03-02T10:13:42;0.53;;;0.40;;
41627;SDS011;27321;50.816;6.054;2024-03-02T10:16:43;1.70;;;0.23;;
41627;SDS011;27321;50.816;6.054;2024-03-02T10:19:49;1.03;;;0.30;;
41627;SDS011;27321;50.816;6.054;2024-03-02T10:22:50;0.30;;;0.23;;
41627;SDS011;27321;50.816;6.054;2024-03-02T10:28:54;0.77;;;0.35;;
41627;SDS011;27321;50.816;6.054;2024-03-02T10:32:01;1.23;;;0.30;;
41627;SDS011;27321;50.816;6.054;2024-03-02T10:35:06;1.07;;;0.47;;
41627;SDS011;27321;50.816;6.054;2024-03-02T10:38:07;1.17;;;0.50;;
41627;SDS011;27321;50.816;6.054;2024-03-02T10:41:11;1.87;;;0.50;;
41627;SDS011;27321;50.816;6.054;2024-03-02T10:44:12;1.17;;;0.35;;
41627;SDS011;27321;50.816;6.054;2024-03-02T10:47:16;0.73;;;0.47;;
41627;SDS011;27321;50.816;6.054;2024-03-02T10:50:20;1.17;;;0.57;;
41627;SDS011;27321;50.816;6.054;2024-03-02T10:53:21;0.73;;;0.37;;
41627;SDS011;27321;50.816;6.054;2024-03-02T10:56:26;1.47;;;0.43;;
41627;SDS011;27321;50.816;6.054;2024-03-02T10:59:34;2.05;;;0.60;;
41627;SDS011;27321;50.816;6.054;2024-03-02T11:03:04;3.10;;;0.60;;
41627;SDS011;27321;50.816;6.054;2024-03-02T11:06:11;0.60;;;0.50;;
41627;SDS011;27321;50.816;6.054;2024-03-02T11:09:13;0.67;;;0.30;;
41627;SDS011;27321;50.816;6.054;2024-03-02T11:12:23;1.83;;;0.40;;
41627;SDS011;27321;50.816;6.054;2024-03-02T11:15:37;0.50;;;0.20;;
41627;SDS011;27321;50.816;6.054;2024-03-02T11:18:44;0.90;;;0.40;;
41627;SDS011;27321;50.816;6.054;2024-03-02T11:21:45;0.68;;;0.38;;
41627;SDS011;27321;50.816;6.054;2024-03-02T11:30:53;2.30;;;0.70;;
41627;SDS011;27321;50.816;6.054;2024-03-02T11:33:54;0.60;;;0.32;;
41627;SDS011;27321;50.816;6.054;2024-03-02T11:36:56;0.52;;;0.35;;
41627;SDS011;27321;50.816;6.054;2024-03-02T11:40:02;1.05;;;0.52;;
41627;SDS011;27321;50.816;6.054;2024-03-02T11:43:07;0.50;;;0.32;;
41627;SDS011;27321;50.816;6.054;2024-03-02T11:46:08;0.88;;;0.40;;
41627;SDS011;27321;50.816;6.054;2024-03-02T11:49:09;0.50;;;0.28;;
41627;SDS011;27321;50.816;6.054;2024-03-02T11:52:15;3.28;;;0.32;;
41627;SDS011;27321;50.816;6.054;2024-03-02T11:55:18;1.55;;;0.25;;
41627;SDS011;27321;50.816;6.054;2024-03-02T11:58:21;1.05;;;0.43;;
41627;SDS011;27321;50.816;6.054;2024-03-02T12:01:24;0.32;;;0.30;;
41627;SDS011;27321;50.816;6.054;2024-03-02T12:04:25;0.47;;;0.22;;
41627;SDS011;27321;50.816;6.054;2024-03-02T12:10:28;0.68;;;0.47;;
41627;SDS011;27321;50.816;6.054;2024-03-02T12:13:29;0.93;;;0.38;;
41627;SDS011;27321;50.816;6.054;2024-03-02T12:16:31;1.13;;;0.35;;
41627;SDS011;27321;50.816;6.054;2024-03-02T12:19:35;0.32;;;0.25;;
41627;SDS011;27321;50.816;6.054;2024-03-02T12:22:37;0.93;;;0.28;;
41627;SDS011;27321;50.816;6.054;2024-03-02T12:25:39;0.55;;;0.22;;
41627;SDS011;27321;50.816;6.054;2024-03-02T12:28:40;0.93;;;0.32;;
41627;SDS011;27321;50.816;6.054;2024-03-02T12:31:42;0.47;;;0.35;;
41627;SDS011;27321;50.816;6.054;2024-03-02T12:34:46;0.68;;;0.40;;
41627;SDS011;27321;50.816;6.054;2024-03-02T12:37:48;1.13;;;0.30;;
41627;SDS011;27321;50.816;6.054;2024-03-02T12:40:51;0.85;;;0.50;;
41627;SDS011;27321;50.816;6.054;2024-03-02T12:43:52;2.65;;;0.40;;
41627;SDS011;27321;50.816;6.054;2024-03-02T12:49:56;1.13;;;0.28;;
41627;SDS011;27321;50.816;6.054;2024-03-02T12:55:58;0.73;;;0.40;;
41627;SDS011;27321;50.816;6.054;2024-03-02T12:58:59;1.58;;;0.50;;
41627;SDS011;27321;50.816;6.054;2024-03-02T13:02:03;0.63;;;0.30;;
41627;SDS011;27321;50.816;6.054;2024-03-02T13:05:04;0.90;;;0.40;;
41627;SDS011;27321;50.816;6.054;2024-03-02T13:08:11;0.70;;;0.50;;
41627;SDS011;27321;50.816;6.054;2024-03-02T13:11:12;0.68;;;0.40;;
41627;SDS011;27321;50.816;6.054;2024-03-02T13:14:14;2.03;;;0.50;;
41627;SDS011;27321;50.816;6.054;2024-03-02T13:17:15;0.55;;;0.40;;
41627;SDS011;27321;50.816;6.054;2024-03-02T13:20:18;0.80;;;0.57;;
41627;SDS011;27321;50.816;6.054;2024-03-02T13:23:20;0.20;;;0.20;;
41627;SDS011;27321;50.816;6.054;2024-03-02T13:26:21;0.65;;;0.32;;
41627;SDS011;27321;50.816;6.054;2024-03-02T13:29:22;0.30;;;0.30;;
41627;SDS011;27321;50.816;6.054;2024-03-02T13:32:23;0.52;;;0.40;;
41627;SDS011;27321;50.816;6.054;2024-03-02T13:35:24;0.60;;;0.47;;
41627;SDS011;27321;50.816;6.054;2024-03-02T13:38:25;1.98;;;0.32;;
41627;SDS011;27321;50.816;6.054;2024-03-02T13:41:26;1.20;;;0.38;;
41627;SDS011;27321;50.816;6.054;2024-03-02T13:44:28;0.70;;;0.43;;
41627;SDS011;27321;50.816;6.054;2024-03-02T13:47:29;0.55;;;0.47;;
41627;SDS011;27321;50.816;6.054;2024-03-02T13:50:29;4.45;;;3.95;;
41627;SDS011;27321;50.816;6.054;2024-03-02T13:53:31;3.80;;;3.50;;
41627;SDS011;27321;50.816;6.054;2024-03-02T13:59:36;0.82;;;0.73;;
41627;SDS011;27321;50.816;6.054;2024-03-02T14:02:39;0.47;;;0.47;;
41627;SDS011;27321;50.816;6.054;2024-03-02T14:05:43;0.60;;;0.45;;
41627;SDS011;27321;50.816;6.054;2024-03-02T14:08:46;0.77;;;0.70;;
41627;SDS011;27321;50.816;6.054;2024-03-02T14:11:49;0.47;;;0.40;;
41627;SDS011;27321;50.816;6.054;2024-03-02T14:14:51;1.10;;;0.50;;
41627;SDS011;27321;50.816;6.054;2024-03-02T14:17:55;0.98;;;0.50;;
41627;SDS011;27321;50.816;6.054;2024-03-02T14:20:56;0.98;;;0.50;;
41627;SDS011;27321;50.816;6.054;2024-03-02T14:23:57;0.63;;;0.45;;
41627;SDS011;27321;50.816;6.054;2024-03-02T14:26:58;0.65;;;0.50;;
41627;SDS011;27321;50.816;6.054;2024-03-02T14:30:03;1.25;;;0.50;;
41627;SDS011;27321;50.816;6.054;2024-03-02T14:33:05;0.82;;;0.50;;
41627;SDS011;27321;50.816;6.054;2024-03-02T14:36:06;0.75;;;0.38;;
41627;SDS011;27321;50.816;6.054;2024-03-02T14:39:07;0.45;;;0.40;;
41627;SDS011;27321;50.816;6.054;2024-03-02T14:42:10;1.05;;;0.60;;
41627;SDS011;27321;50.816;6.054;2024-03-02T14:45:11;0.50;;;0.30;;
41627;SDS011;27321;50.816;6.054;2024-03-02T14:48:12;0.30;;;0.30;;
41627;SDS011;27321;50.816;6.054;2024-03-02T14:51:13;0.70;;;0.60;;
41627;SDS011;27321;50.816;6.054;2024-03-02T14:54:14;0.70;;;0.40;;
41627;SDS011;27321;50.816;6.054;2024-03-02T14:57:15;0.20;;;0.20;;
41627;SDS011;27321;50.816;6.054;2024-03-02T15:00:16;0.90;;;0.60;;
41627;SDS011;27321;50.816;6.054;2024-03-02T15:03:18;0.52;;;0.40;;
41627;SDS011;27321;50.816;6.054;2024-03-02T15:06:19;0.38;;;0.20;;
41627;SDS011;27321;50.816;6.054;2024-03-02T15:09:20;0.57;;;0.30;;
41627;SDS011;27321;50.816;6.054;2024-03-02T15:12:21;0.47;;;0.47;;
41627;SDS011;27321;50.816;6.054;2024-03-02T15:15:23;0.20;;;0.20;;
41627;SDS011;27321;50.816;6.054;2024-03-02T15:18:24;0.82;;;0.40;;
41627;SDS011;27321;50.816;6.054;2024-03-02T15:21:25;0.50;;;0.40;;
41627;SDS011;27321;50.816;6.054;2024-03-02T15:24:26;1.10;;;0.73;;
41627;SDS011;27321;50.816;6.054;2024-03-02T15:27:26;1.00;;;0.70;;
41627;SDS011;27321;50.816;6.054;2024-03-02T15:30:28;0.80;;;0.80;;
41627;SDS011;27321;50.816;6.054;2024-03-02T15:33:29;1.08;;;0.68;;
41627;SDS011;27321;50.816;6.054;2024-03-02T15:36:31;0.47;;;0.47;;
41627;SDS011;27321;50.816;6.054;2024-03-02T15:39:32;0.70;;;0.70;;
41627;SDS011;27321;50.816;6.054;2024-03-02T15:42:33;0.77;;;0.60;;
41627;SDS011;27321;50.816;6.054;2024-03-02T15:48:35;0.90;;;0.55;;
41627;SDS011;27321;50.816;6.054;2024-03-02T15:51:36;0.70;;;0.70;;
41627;SDS011;27321;50.816;6.054;2024-03-02T15:54:40;0.60;;;0.60;;
41627;SDS011;27321;50.816;6.054;2024-03-02T15:57:43;1.10;;;0.70;;
41627;SDS011;27321;50.816;6.054;2024-03-02T16:00:44;0.55;;;0.50;;
41627;SDS011;27321;50.816;6.054;2024-03-02T16:03:45;0.50;;;0.40;;
41627;SDS011;27321;50.816;6.054;2024-03-02T16:06:46;0.40;;;0.40;;
41627;SDS011;27321;50.816;6.054;2024-03-02T16:09:48;0.47;;;0.45;;
41627;SDS011;27321;50.816;6.054;2024-03-02T16:12:49;0.35;;;0.35;;
41627;SDS011;27321;50.816;6.054;2024-03-02T16:15:50;1.02;;;0.60;;
41627;SDS011;27321;50.816;6.054;2024-03-02T16:18:53;0.82;;;0.65;;
41627;SDS011;27321;50.816;6.054;2024-03-02T16:21:54;0.80;;;0.60;;
41627;SDS011;27321;50.816;6.054;2024-03-02T16:24:55;0.75;;;0.65;;
41627;SDS011;27321;50.816;6.054;2024-03-02T16:27:56;0.68;;;0.52;;
41627;SDS011;27321;50.816;6.054;2024-03-02T16:30:57;0.90;;;0.60;;
41627;SDS011;27321;50.816;6.054;2024-03-02T16:33:58;1.08;;;0.60;;
41627;SDS011;27321;50.816;6.054;2024-03-02T16:36:59;0.98;;;0.55;;
41627;SDS011;27321;50.816;6.054;2024-03-02T16:40:25;0.73;;;0.60;;
41627;SDS011;27321;50.816;6.054;2024-03-02T16:43:27;1.08;;;0.60;;
41627;SDS011;27321;50.816;6.054;2024-03-02T16:46:29;1.38;;;0.60;;
41627;SDS011;27321;50.816;6.054;2024-03-02T16:49:31;0.45;;;0.40;;
41627;SDS011;27321;50.816;6.054;2024-03-02T16:52:33;0.60;;;0.40;;
41627;SDS011;27321;50.816;6.054;2024-03-02T16:55:39;0.75;;;0.50;;
41627;SDS011;27321;50.816;6.054;2024-03-02T16:58:41;0.50;;;0.43;;
41627;SDS011;27321;50.816;6.054;2024-03-02T17:01:42;1.08;;;0.40;;
41627;SDS011;27321;50.816;6.054;2024-03-02T17:04:43;0.82;;;0.47;;
41627;SDS011;27321;50.816;6.054;2024-03-02T17:07:43;0.50;;;0.50;;
41627;SDS011;27321;50.816;6.054;2024-03-02T17:10:44;0.40;;;0.40;;
41627;SDS011;27321;50.816;6.054;2024-03-02T17:13:46;1.02;;;0.50;;
41627;SDS011;27321;50.816;6.054;2024-03-02T17:16:47;0.75;;;0.50;;
41627;SDS011;27321;50.816;6.054;2024-03-02T17:19:52;0.30;;;0.30;;
41627;SDS011;27321;50.816;6.054;2024-03-02T17:22:54;0.65;;;0.43;;
41627;SDS011;27321;50.816;6.054;2024-03-02T17:25:56;0.40;;;0.40;;
41627;SDS011;27321;50.816;6.054;2024-03-02T17:28:58;1.08;;;0.50;;
41627;SDS011;27321;50.816;6.054;2024-03-02T17:31:59;0.85;;;0.70;;
41627;SDS011;27321;50.816;6.054;2024-03-02T17:34:59;0.50;;;0.50;;
41627;SDS011;27321;50.816;6.054;2024-03-02T17:38:06;0.65;;;0.55;;
41627;SDS011;27321;50.816;6.054;2024-03-02T17:41:09;3.47;;;2.17;;
41627;SDS011;27321;50.816;6.054;2024-03-02T17:44:13;3.15;;;2.20;;
41627;SDS011;27321;50.816;6.054;2024-03-02T17:47:14;3.20;;;1.88;;
41627;SDS011;27321;50.816;6.054;2024-03-02T17:50:15;1.30;;;1.20;;
41627;SDS011;27321;50.816;6.054;2024-03-02T17:53:16;1.27;;;1.17;;
41627;SDS011;27321;50.816;6.054;2024-03-02T17:56:19;2.70;;;1.10;;
41627;SDS011;27321;50.816;6.054;2024-03-02T17:59:20;2.30;;;1.65;;
41627;SDS011;27321;50.816;6.054;2024-03-02T18:02:21;1.95;;;1.60;;
41627;SDS011;27321;50.816;6.054;2024-03-02T18:05:22;1.77;;;1.60;;
41627;SDS011;27321;50.816;6.054;2024-03-02T18:08:23;2.40;;;1.92;;
41627;SDS011;27321;50.816;6.054;2024-03-02T18:11:24;2.00;;;1.35;;
41627;SDS011;27321;50.816;6.054;2024-03-02T18:14:25;2.50;;;1.65;;
41627;SDS011;27321;50.816;6.054;2024-03-02T18:17:26;1.85;;;1.67;;
41627;SDS011;27321;50.816;6.054;2024-03-02T18:20:27;1.70;;;1.38;;
41627;SDS011;27321;50.816;6.054;2024-03-02T18:23:28;6.60;;;4.45;;
41627;SDS011;27321;50.816;6.054;2024-03-02T18:26:29;2.92;;;2.13;;
41627;SDS011;27321;50.816;6.054;2024-03-02T18:29:34;3.22;;;1.80;;
41627;SDS011;27321;50.816;6.054;2024-03-02T18:32:38;3.75;;;1.95;;
41627;SDS011;27321;50.816;6.054;2024-03-02T18:35:39;2.27;;;1.30;;
41627;SDS011;27321;50.816;6.054;2024-03-02T18:38:41;2.88;;;2.08;;
41627;SDS011;27321;50.816;6.054;2024-03-02T18:41:41;2.42;;;2.00;;
41627;SDS011;27321;50.816;6.054;2024-03-02T18:44:43;2.28;;;2.00;;